Tiempo atmosférico en la estación meteorológica de La Aldea de San Nicolás, Las Palmas (318 m.)



Fecha
DESCASC
Temp. máxima en grados centígrados (hora)
DESCASC
Temp. mínima en grados centígrados (hora)
DESCASC
Temp. media en grados centígrados
DESCASC
Racha de viento máxima en m/sg (hora)
DESCASC
Velocidad máxima media en intervalos de 10 minutos(hora)
DESCASC
Precipitaciones diarias en mm
DESCASC
Precipitaciones de 00:00 a 06:00 en mm
DESCASC
Precipitaciones de 06:00 a 12:00 en mm
DESCASC
Precipitaciones de 12:00 a 18:00 en mm
DESCASC
Precipitaciones de 18:00 a 24:00 en mm
DESCASC
17-10-2019 26 (14:50) 19.4 (06:20) 22.7 15.83 (15:30) 8.61 (08:50) 0 0 0 0 0
16-10-2019 24.9 (14:10) 18.1 (07:50) 21.5 10.83 (12:40) 6.67 (11:10) 0 0 0 0 0
15-10-2019 26.9 (14:10) 16.1 (08:20) 21.5 15.56 (17:40) 9.44 (18:20) 0 0 0 0 0
14-10-2019 26.2 (16:00) 18.8 (06:10) 22.5 19.17 (14:30) 9.17 (20:20) 0 0 0 0 0
13-10-2019 26.9 (15:50) 17.6 (00:00) 22.3 9.17 (23:00) 5.28 (23:59) 0 0 0 0 0
12-10-2019 27.7 (17:40) 20 (00:00) 23.9 11.39 (17:40) 6.67 (20:10) 0 0 0 0 0
11-10-2019 28 (17:20) 17.6 (00:00) 22.8 11.67 (20:30) 5.28 (14:50) 0 0 0 0 0
10-10-2019 28.7 (15:30) 17.5 (00:00) 23.1 13.61 (15:40) 6.39 (17:10) 0 0 0 0 0
09-10-2019 26.4 (14:20) 19.5 (00:00) 22.9 16.11 (12:40) 9.72 (20:00) 0 0 0 0 0
08-10-2019 26.5 (14:00) 18 (00:00) 22.3 16.67 (12:30) 9.72 (16:10) 0 0 0 0 0
07-10-2019 27.4 (14:40) 17.4 (00:00) 22.4 16.39 (00:40) 10 (00:20) 0 0 0 0 0
06-10-2019 26.5 (14:00) 21.7 (00:00) 24.1 22.22 (03:50) 12.5 (03:50) 0 0 0 0 0
05-10-2019 27.4 (13:50) 22.4 (00:00) 24.9 23.89 (13:10) 13.61 (06:00) 0 0 0 0 0
04-10-2019 25.8 (14:10) 22.2 (00:00) 24 23.33 (16:10) 13.33 (12:30) 0 0 0 0 0
03-10-2019 27.1 (13:10) 17.5 (00:00) 22.3 21.39 (17:00) 15 (16:00) 0 0 0 0 0
02-10-2019 29.9 (16:10) 17.5 (00:00) 23.7 7.78 (13:00) 6.11 (13:00) 0 0 0 0 0
01-10-2019 34 (15:40) 17.1 (00:00) 25.6 12.22 (17:20) 7.5 (17:20) 0 0 0 0 0
30-09-2019 29.5 (13:40) 19.4 (00:00) 24.4 20 (17:20) 11.11 (17:50) 0 0 0 0 0
29-09-2019 29.7 (15:20) 18.2 (00:00) 24 14.72 (19:40) 8.61 (17:30) 0 0 0 0 0
28-09-2019 27.5 (13:30) 18.3 (00:00) 22.9 17.22 (19:20) 9.72 (18:00) 0 0 0 0 0
27-09-2019 27.2 (14:20) 19.8 (00:00) 23.5 18.06 (17:20) 10.83 (19:30) 0 0 0 0 0
26-09-2019 27.2 (15:40) 18.7 (00:00) 23 18.61 (18:00) 10.56 (18:20) 0 0 0 0 0
25-09-2019 26.6 (14:50) 21.4 (00:00) 24 17.78 (17:20) 11.67 (19:30) 0 0 0 0 0
24-09-2019 27.7 (14:20) 20.2 (00:00) 24 18.33 (18:20) 10.56 (13:10) 0 0 0 0 0
23-09-2019 27.8 (16:40) 22.3 (00:00) 25 18.61 (23:20) 10.83 (21:40) 0 0 0 0 0
22-09-2019 28.1 (16:40) 19.7 (00:00) 23.9 18.06 (21:10) 11.67 (21:40) 0 0 0 0 0
21-09-2019 28.4 (15:00) 17.7 (00:00) 23.1 12.22 (16:00) 8.06 (13:10) 0 0 0 0 0
20-09-2019 26.9 (13:50) 19.3 (00:00) 23.1 17.5 (18:30) 12.22 (18:00) 0 0 0 0 0
19-09-2019 26.5 (15:40) 19.1 (00:00) 22.8 18.06 (20:20) 11.11 (13:40) 0 0 0 0 0

Gráficas

Temp. máximas Temp. mínimas Temp. medias Precipitaciones Rachas de viento máximas Velocidades máximas media en intervalos de 10 minutos

Datos horarios

Fecha y hora oficial Temperatura (ºC) Velocidad del viento (km/h) Dirección del viento Racha (km/h) Dirección de racha Precipitación (mm) Presión (hPa) Tendencia (hPa) Humedad (%)
2019-10-18 23:00:00 19.1 2 Nordeste 19 Norte 0 -- -- 75
2019-10-18 22:00:00 19.6 12 Nordeste 23 Este 0 -- -- 74
2019-10-18 21:00:00 19.8 12 Nordeste 24 Nordeste 0 -- -- 74
2019-10-18 20:00:00 20.9 5 Sudeste 21 Sur 0 -- -- 70
2019-10-18 19:00:00 23.2 13 Sur 23 Sur 0 -- -- 60
2019-10-18 18:00:00 24.9 14 Sur 19 Nordeste 0 -- -- 53
2019-10-18 17:00:00 26.7 12 Sur 29 Sur 0 -- -- 52
2019-10-18 16:00:00 24.3 14 Norte 26 Norte 0 -- -- 58
2019-10-18 15:00:00 26.9 14 Sur 27 Sur 0 -- -- 52
2019-10-18 14:00:00 26.3 18 Sur 28 Sur 0 -- -- 54
2019-10-18 13:00:00 24.8 21 Sur 26 Sur 0 -- -- 58
2019-10-18 12:00:00 24 17 Sur 22 Sur 0 -- -- 58
2019-10-18 11:00:00 21 6 Nordeste 17 Este 0 -- -- 66
2019-10-18 10:00:00 19.4 7 Nordeste 14 Nordeste 0 -- -- 71
2019-10-18 09:00:00 16.8 6 Norte 15 Norte 0 -- -- 77
2019-10-18 08:00:00 16.7 10 Norte 13 Norte 0 -- -- 76
2019-10-18 07:00:00 16.7 4 Norte 11 Nordeste 0 -- -- 75
2019-10-18 06:00:00 17.5 7 Nordeste 12 Nordeste 0 -- -- 74
2019-10-18 05:00:00 18.1 10 Nordeste 16 Nordeste 0 -- -- 72
2019-10-18 04:00:00 18 10 Nordeste 19 Nordeste 0 -- -- 72
2019-10-18 03:00:00 18.2 8 Norte 23 Nordeste 0 -- -- 72
2019-10-18 02:00:00 18.5 10 Nordeste 18 Norte 0 -- -- 74
2019-10-18 01:00:00 18.3 7 Norte 14 Nordeste 0 -- -- 75
2019-10-18 00:00:00 18.2 6 Norte 8 Norte 0 -- -- 76
2019-10-17 23:00:00 18.5 5 Norte 8 Norte 0 -- -- 76
2019-10-17 22:00:00 19.2 4 Sudeste 13 Sur 0 -- -- 74
2019-10-17 21:00:00 19.8 9 Sur 15 Sur 0 -- -- 72
2019-10-17 20:00:00 20.4 11 Sur 19 Sur 0 -- -- 69
2019-10-17 19:00:00 22 15 Sur 21 Sur 0 -- -- 63
2019-10-17 18:00:00 23.5 13 Sudoeste 29 Sur 0 -- -- 60
2019-10-17 17:00:00 25.5 20 Sur 29 Sur 0 -- -- 54
2019-10-17 16:00:00 26.2 19 Sur 26 Sur 0 -- -- 54
2019-10-17 15:00:00 25.3 16 Sur 24 Sur 0 -- -- 58
2019-10-17 14:00:00 23.8 19 Sur 27 Sur 0 -- -- 63
2019-10-17 13:00:00 23.3 17 Sur 33 Sur 0 -- -- 67
2019-10-17 12:00:00 22.4 17 Sur 22 Sur 0 -- -- 70
2019-10-17 11:00:00 21.2 4 Sudeste 21 Este 0 -- -- 71
2019-10-17 10:00:00 19.5 11 Nordeste 19 Nordeste 0 -- -- 74
2019-10-17 09:00:00 18.7 6 Nordeste 24 Nordeste 0 -- -- 78
2019-10-17 08:00:00 18.9 13 Nordeste 21 Nordeste 0 -- -- 78
2019-10-17 07:00:00 18.8 6 Nordeste 8 Nordeste 0 -- -- 81
2019-10-17 06:00:00 19.3 0 Calma 12 Sur 0 -- -- 81
2019-10-17 05:00:00 19.4 7 Sur 12 Sur 0 -- -- 82
2019-10-17 04:00:00 19.2 4 Sudeste 8 Sur 0 -- -- 81
2019-10-17 03:00:00 18.8 3 Norte 17 Nordeste 0 -- -- 80
2019-10-17 02:00:00 19.3 10 Nordeste 19 Nordeste 0 -- -- 79
2019-10-17 01:00:00 19.8 5 Norte 8 Norte 0 -- -- 80
2019-10-17 00:00:00 20.2 6 Sur 12 Sur 0 -- -- 80
2019-10-16 23:00:00 20.3 3 Sudeste 9 Sur 0 -- -- 79
2019-10-16 22:00:00 20.4 6 Sur 15 Sur 0 -- -- 77
2019-10-16 21:00:00 20.5 13 Sur 20 Sur 0 -- -- 74
2019-10-16 20:00:00 20.8 8 Sur 14 Sur 0 -- -- 73
2019-10-16 19:00:00 21.7 7 Sur 14 Sur 0 -- -- 71
2019-10-16 18:00:00 22 11 Sur 22 Sur 0 -- -- 70
2019-10-16 17:00:00 22.3 14 Sur 19 Sur 0 -- -- 71
2019-10-16 16:00:00 21.2 10 Sur 29 Sur 0 -- -- 75
2019-10-16 15:00:00 21 4 Sur 19 Sur 0 -- -- 76
2019-10-16 14:00:00 21.1 15 Sur 24 Sur 0 -- -- 79
2019-10-16 13:00:00 21.8 9 Sur 21 Sur 0 -- -- 79
2019-10-16 12:00:00 21.4 14 Sur 19 Sur 0 -- -- 82
2019-10-16 11:00:00 21.3 4 Sur 12 Sur 0 -- -- 73
2019-10-16 10:00:00 20.7 10 Sur 16 Sur 0 -- -- 75
2019-10-16 09:00:00 19.5 3 Norte 8 Norte 0 -- -- 77
2019-10-16 08:00:00 18.8 3 Nordeste 6 Nordeste 0 -- -- 80
2019-10-16 07:00:00 19 3 Norte 8 Sur 0 -- -- 80
2019-10-16 06:00:00 19.5 2 Nordeste 8 Este 0 -- -- 79
2019-10-16 05:00:00 19.4 4 Sudeste 7 Sur 0 -- -- 79
2019-10-16 04:00:00 19.8 5 Sur 7 Sur 0 -- -- 76
2019-10-16 03:00:00 19.9 6 Sur 12 Sur 0 -- -- 78
2019-10-16 02:00:00 19.7 4 Sur 15 Sur 0 -- -- 79
2019-10-16 01:00:00 19.3 2 Sur 6 Sur 0 -- -- 80
2019-10-16 00:00:00 19.2 3 Sur 5 Sudeste 0 -- -- 78
2019-10-15 23:00:00 19.5 0 Calma 6 Sudoeste 0 -- -- 76
2019-10-15 22:00:00 20.1 3 Sur 15 Sur 0 -- -- 74
2019-10-15 21:00:00 20.9 10 Sur 21 Sur 0 -- -- 72
2019-10-15 20:00:00 21.4 17 Sur 23 Sur 0 -- -- 71
2019-10-15 19:00:00 22.4 17 Sur 28 Sur 0 -- -- 69
2019-10-15 18:00:00 26 14 Sur 27 Sur 0 -- -- 58
2019-10-15 17:00:00 26.7 20 Sur 30 Sur 0 -- -- 54
2019-10-15 16:00:00 26.6 19 Sur 28 Sur 0 -- -- 54
2019-10-15 15:00:00 26.2 15 Sur 28 Sur 0 -- -- 56
2019-10-15 14:00:00 23.6 20 Sur 31 Sur 0 -- -- 63
2019-10-15 13:00:00 24.4 19 Sur 28 Sur 0 -- -- 62
2019-10-15 12:00:00 22.7 16 Sur 21 Sur 0 -- -- 70
2019-10-15 11:00:00 21.3 9 Sur 13 Sur 0 -- -- 74
2019-10-15 10:00:00 19.6 0 Calma 5 Norte 0 -- -- 78
2019-10-15 09:00:00 18.2 5 Nordeste 9 Norte 0 -- -- 81
2019-10-15 08:00:00 17.5 4 Norte 12 Norte 0 -- -- 80
2019-10-15 07:00:00 17.3 6 Norte 10 Norte 0 -- -- 78
2019-10-15 06:00:00 17.5 4 Norte 10 Norte 0 -- -- 75
2019-10-15 05:00:00 17.9 8 Norte 13 Norte 0 -- -- 69
2019-10-15 04:00:00 18.2 5 Norte 13 Norte 0 -- -- 68
2019-10-15 03:00:00 18.6 6 Norte 13 Nordeste 0 -- -- 65
2019-10-15 02:00:00 19.2 0 Calma 17 Norte 0 -- -- 61
2019-10-15 01:00:00 19.8 7 Nordeste 18 Norte 0 -- -- 59
2019-10-15 00:00:00 19.9 11 Norte 18 Nordeste 0 -- -- 57
2019-10-14 23:00:00 19.7 5 Norte 10 Nordeste 0 -- -- 56
2019-10-14 22:00:00 20.2 9 Norte 19 Nordeste 0 -- -- 59
2019-10-14 21:00:00 20.9 8 Norte 22 Nordeste 0 -- -- 59
2019-10-14 20:00:00 21.3 15 Nordeste 22 Norte 0 -- -- 62
2019-10-14 19:00:00 22.1 17 Nordeste 26 Nordeste 0 -- -- 64
2019-10-14 18:00:00 25.6 6 Nordeste 24 Sur 0 -- -- 55
2019-10-14 17:00:00 26.6 17 Sur 31 Sur 0 -- -- 53
2019-10-14 16:00:00 27.2 21 Sur 31 Sur 0 -- -- 56
2019-10-14 15:00:00 26.6 19 Sur 30 Sur 0 -- -- 58
2019-10-14 14:00:00 26.5 19 Sur 28 Sudoeste 0 -- -- 57
2019-10-14 13:00:00 25.7 21 Sur 28 Sur 0 -- -- 58
2019-10-14 12:00:00 23.8 14 Sur 22 Sur 0 -- -- 63
2019-10-14 11:00:00 22.4 9 Sur 12 Sur 0 -- -- 63
2019-10-14 10:00:00 20.1 4 Sur 8 Sudeste 0 -- -- 68
2019-10-14 09:00:00 18.2 0 Calma 14 Norte 0 -- -- 75
2019-10-14 08:00:00 18.6 4 Oeste 17 Nordeste 0 -- -- 72
2019-10-14 07:00:00 19.3 8 Nordeste 24 Nordeste 0 -- -- 68
2019-10-14 06:00:00 17.3 6 Norte 16 Nordeste 0 -- -- 84
2019-10-14 05:00:00 17.3 2 Norte 6 Norte 0 -- -- 84
2019-10-14 04:00:00 17.3 3 Norte 6 Sur 0 -- -- 82
2019-10-14 03:00:00 18 3 Nordeste 9 Norte 0 -- -- 80
2019-10-14 02:00:00 17.9 5 Norte 10 Norte 0 -- -- 77
2019-10-14 01:00:00 18.6 4 Norte 7 Norte 0 -- -- 75
2019-10-14 00:00:00 19 3 Norte 8 Sur 0 -- -- 74
2019-10-13 23:00:00 19.7 5 Sudeste 9 Sudoeste 0 -- -- 71
2019-10-13 22:00:00 20.4 6 Sur 12 Sur 0 -- -- 67
2019-10-13 21:00:00 20.9 4 Este 13 Nordeste 0 -- -- 62
2019-10-13 20:00:00 21.4 4 Sur 23 Sur 0 -- -- 66
2019-10-13 19:00:00 23.1 18 Sur 28 Sur 0 -- -- 60
2019-10-13 18:00:00 25.3 8 Sudoeste 30 Sur 0 -- -- 45
2019-10-13 17:00:00 26.7 18 Sur 32 Sur 0 -- -- 50
2019-10-13 16:00:00 27.7 21 Sur 33 Sur 0 -- -- 46
2019-10-13 15:00:00 27.3 21 Sur 31 Sur 0 -- -- 46
2019-10-13 14:00:00 26.8 22 Sur 31 Sur 0 -- -- 48
2019-10-13 13:00:00 26.2 17 Sur 26 Sur 0 -- -- 49
2019-10-13 12:00:00 24.2 14 Sur 22 Sur 0 -- -- 55
2019-10-13 11:00:00 22.7 9 Sur 19 Sudoeste 0 -- -- 60
2019-10-13 10:00:00 19.9 0 Calma 8 Nordeste 0 -- -- 70
2019-10-13 09:00:00 18.7 6 Norte 8 Norte 0 -- -- 74
2019-10-13 08:00:00 18.4 2 Norte 10 Nordeste 0 -- -- 75
2019-10-13 07:00:00 18.3 8 Norte 11 Norte 0 -- -- 76
2019-10-13 06:00:00 19 4 Nordeste 6 Nordeste 0 -- -- 81
2019-10-13 05:00:00 19.6 0 Calma 9 Sur 0 -- -- 81
2019-10-13 04:00:00 19.5 6 Sudoeste 12 Sudeste 0 -- -- 82
2019-10-13 03:00:00 19.4 5 Sur 10 Sur 0 -- -- 81
2019-10-13 02:00:00 19 0 Calma 7 Norte 0 -- -- 79
2019-10-13 01:00:00 19.1 5 Nordeste 6 Nordeste 0 -- -- 80
2019-10-13 00:00:00 19.6 4 Sur 10 Sudeste 0 -- -- 77
2019-10-12 23:00:00 19.8 5 Sur 11 Noroeste 0 -- -- 75
2019-10-12 22:00:00 20.4 8 Norte 19 Norte 0 -- -- 71
2019-10-12 21:00:00 21 9 Nordeste 20 Nordeste 0 -- -- 72
2019-10-12 20:00:00 21.3 12 Nordeste 21 Este 0 -- -- 71
2019-10-12 19:00:00 21.8 14 Nordeste 21 Nordeste 0 -- -- 66
2019-10-12 18:00:00 22.1 17 Norte 26 Norte 0 -- -- 65
2019-10-12 17:00:00 27.5 17 Sur 27 Sur 0 -- -- 49
2019-10-12 16:00:00 26.6 21 Sur 28 Sur 0 -- -- 52
2019-10-12 15:00:00 26.2 18 Sur 30 Sur 0 -- -- 54
2019-10-12 14:00:00 25.5 19 Sur 27 Sur 0 -- -- 57
2019-10-12 13:00:00 22.8 18 Sur 26 Sur 0 -- -- 65
2019-10-12 12:00:00 22.6 17 Sur 23 Sur 0 -- -- 64
2019-10-12 11:00:00 21.2 9 Sur 15 Sur 0 -- -- 67
2019-10-12 10:00:00 20.6 4 Nordeste 8 Este 0 -- -- 69
2019-10-12 09:00:00 18.1 4 Norte 10 Nordeste 0 -- -- 72
2019-10-12 08:00:00 18.1 3 Norte 10 Norte 0 -- -- 71
2019-10-12 07:00:00 18.7 4 Norte 15 Nordeste 0 -- -- 70
2019-10-12 06:00:00 18.7 6 Norte 15 Nordeste 0 -- -- 71
2019-10-12 05:00:00 18.9 6 Norte 17 Nordeste 0 -- -- 71
2019-10-12 04:00:00 18.7 0 Calma 7 Nordeste 0 -- -- 73
2019-10-12 03:00:00 19.4 4 Nordeste 13 Nordeste 0 -- -- 72
2019-10-12 02:00:00 19.7 5 Nordeste 21 Norte 0 -- -- 65
2019-10-12 01:00:00 19.8 11 Norte 19 Norte 0 -- -- 65
2019-10-12 00:00:00 19.9 7 Norte 23 Norte 0 -- -- 66
2019-10-11 23:00:00 19.7 5 Norte 17 Sur 0 -- -- 73
2019-10-11 22:00:00 20.2 6 Oeste 15 Sudoeste 0 -- -- 71
2019-10-11 21:00:00 20.7 12 Sur 18 Sur 0 -- -- 75
2019-10-11 20:00:00 21.4 8 Oeste 17 Sur 0 -- -- 71
2019-10-11 19:00:00 23.9 12 Sur 22 Sur 0 -- -- 60
2019-10-11 18:00:00 25.4 17 Sur 26 Sur 0 -- -- 57
2019-10-11 17:00:00 26.9 18 Sur 29 Sur 0 -- -- 54
2019-10-11 16:00:00 27.3 20 Sur 33 Sur 0 -- -- 50
2019-10-11 15:00:00 28 18 Sur 30 Sur 0 -- -- 48
2019-10-11 14:00:00 26.7 22 Sur 30 Sur 0 -- -- 51
2019-10-11 13:00:00 26.1 21 Sur 28 Sur 0 -- -- 55
2019-10-11 12:00:00 25.2 17 Sur 24 Sur 0 -- -- 61
2019-10-11 11:00:00 23.9 12 Sur 18 Sur 0 -- -- 62
2019-10-11 10:00:00 20 4 Sudeste 9 Sur 0 -- -- 67
2019-10-11 09:00:00 18.2 0 Calma 10 Norte 0 -- -- 67
2019-10-11 08:00:00 18.3 0 Calma 9 Sur 0 -- -- 66
2019-10-11 07:00:00 19.7 5 Sudeste 25 Este 0 -- -- 61
2019-10-11 06:00:00 20.1 13 Nordeste 24 Este 0 -- -- 61
2019-10-11 05:00:00 19.5 7 Nordeste 17 Norte 0 -- -- 66
2019-10-11 04:00:00 19.5 7 Nordeste 19 Nordeste 0 -- -- 68
2019-10-11 03:00:00 19.9 7 Nordeste 18 Nordeste 0 -- -- 69
2019-10-11 02:00:00 19.9 6 Nordeste 15 Nordeste 0 -- -- 70
2019-10-11 01:00:00 20 8 Nordeste 18 Nordeste 0 -- -- 71
2019-10-11 00:00:00 19.9 7 Nordeste 12 Nordeste 0 -- -- 78
2019-10-10 23:00:00 20.7 6 Sur 13 Sur 0 -- -- 84
2019-10-10 22:00:00 21 9 Sur 17 Sur 0 -- -- 83
2019-10-10 21:00:00 21.5 9 Sur 19 Sur 0 -- -- 79
2019-10-10 20:00:00 22.3 14 Sur 25 Sur 0 -- -- 73
2019-10-10 19:00:00 23.8 15 Sur 30 Sur 0 -- -- 65
2019-10-10 18:00:00 26.8 17 Sur 28 Sur 0 -- -- 53
2019-10-10 17:00:00 27.8 20 Sur 32 Sur 0 -- -- 49
2019-10-10 16:00:00 28.4 17 Sur 30 Sur 0 -- -- 48
2019-10-10 15:00:00 28.4 17 Sur 24 Sur 0 -- -- 52
2019-10-10 14:00:00 26.7 15 Sur 28 Sur 0 -- -- 57
2019-10-10 13:00:00 26.1 17 Sur 35 Sur 0 -- -- 58
2019-10-10 12:00:00 25 18 Sur 27 Sur 0 -- -- 60
2019-10-10 11:00:00 23.7 11 Sur 17 Sur 0 -- -- 59
2019-10-10 10:00:00 20.7 5 Sur 14 Norte 0 -- -- 67
2019-10-10 09:00:00 19 3 Norte 21 Norte 0 -- -- 71
2019-10-10 08:00:00 17.4 5 Norte 14 Nordeste 0 -- -- 80
2019-10-10 07:00:00 17.3 0 Calma 7 Norte 0 -- -- 78
2019-10-10 06:00:00 17.8 5 Norte 6 Nordeste 0 -- -- 77
2019-10-10 05:00:00 18.6 3 Nordeste 10 Norte 0 -- -- 75
2019-10-10 04:00:00 18.8 5 Nordeste 12 Nordeste 0 -- -- 74
2019-10-10 03:00:00 18.5 6 Norte 12 Norte 0 -- -- 78
2019-10-10 02:00:00 18.7 4 Norte 9 Noroeste 0 -- -- 77
2019-10-10 01:00:00 19 3 Norte 8 Norte 0 -- -- 76
2019-10-10 00:00:00 19.7 3 Nordeste 13 Nordeste 0 -- -- 76
2019-10-09 23:00:00 20.5 4 Este 21 Nordeste 0 -- -- 74
2019-10-09 22:00:00 20.7 12 Nordeste 22 Nordeste 0 -- -- 71
2019-10-09 21:00:00 21.2 8 Este 22 Nordeste 0 -- -- 69
2019-10-09 20:00:00 21.9 3 Sur 20 Sur 0 -- -- 74
2019-10-09 19:00:00 23.7 15 Sur 23 Sur 0 -- -- 69
2019-10-09 18:00:00 25.9 17 Sur 28 Sur 0 -- -- 63
2019-10-09 17:00:00 27.1 22 Sur 29 Sur 0 -- -- 59
2019-10-09 16:00:00 27.2 22 Sur 29 Sur 0 -- -- 59
2019-10-09 15:00:00 27 21 Sur 30 Sur 0 -- -- 59
2019-10-09 14:00:00 26.5 21 Sur 30 Sur 0 -- -- 61
2019-10-09 13:00:00 26 21 Sur 29 Sur 0 -- -- 64
2019-10-09 12:00:00 25.9 19 Sur 29 Sur 0 -- -- 64
2019-10-09 11:00:00 24.1 10 Sur 18 Sur 0 -- -- 67
2019-10-09 10:00:00 21.5 0 Calma 9 Norte 0 -- -- 62
2019-10-09 09:00:00 19.2 6 Norte 17 Norte 0 -- -- 69
2019-10-09 08:00:00 18.4 3 Norte 19 Norte 0 -- -- 73
2019-10-09 07:00:00 19.1 8 Norte 17 Norte 0 -- -- 72
2019-10-09 06:00:00 19.2 6 Norte 17 Norte 0 -- -- 72
2019-10-09 05:00:00 19.6 6 Norte 19 Norte 0 -- -- 71
2019-10-09 04:00:00 19.9 15 Nordeste 27 Nordeste 0 -- -- 71
2019-10-09 03:00:00 19.5 10 Norte 19 Nordeste 0 -- -- 78
2019-10-09 02:00:00 19.6 0 Calma 12 Sur 0 -- -- 84
2019-10-09 01:00:00 20.5 7 Sur 18 Norte 0 -- -- 75
2019-10-09 00:00:00 20 6 Norte 14 Norte 0 -- -- 78
2019-10-08 23:00:00 20.2 8 Norte 15 Nordeste 0 -- -- 79
2019-10-08 22:00:00 21 4 Sur 15 Sur 0 -- -- 79
2019-10-08 21:00:00 21.9 7 Sur 11 Sur 0 -- -- 74
2019-10-08 20:00:00 23.3 6 Sudoeste 12 Sudoeste 0 -- -- 69
2019-10-08 19:00:00 25.6 10 Sur 22 Sur 0 -- -- 62
2019-10-08 18:00:00 27.4 19 Sur 27 Sur 0 -- -- 57
2019-10-08 17:00:00 27.7 17 Sur 30 Sur 0 -- -- 61
2019-10-08 16:00:00 28 19 Sur 30 Sur 0 -- -- 61
2019-10-08 15:00:00 28.5 18 Sur 30 Sur 0 -- -- 57
2019-10-08 14:00:00 27.6 21 Sur 31 Sur 0 -- -- 62
2019-10-08 13:00:00 27 18 Sur 25 Sur 0 -- -- 64
2019-10-08 12:00:00 26.1 16 Sur 22 Sur 0 -- -- 68
2019-10-08 11:00:00 24.2 10 Sur 13 Sur 0 -- -- 73
2019-10-08 10:00:00 20.5 0 Calma 4 Sur 0 -- -- 84
2019-10-08 09:00:00 18.5 0 Calma 5 Nordeste 0 -- -- 85
2019-10-08 08:00:00 18.6 0 Calma 5 Norte 0 -- -- 84
2019-10-08 07:00:00 18.9 0 Calma 6 Norte 0 -- -- 81
2019-10-08 06:00:00 19.2 0 Calma 8 Norte 0 -- -- 79
2019-10-08 05:00:00 18.3 0 Calma 10 Norte 0 -- -- 81
2019-10-08 04:00:00 18.6 3 Norte 7 Nordeste 0 -- -- 90
2019-10-08 03:00:00 18.4 2 Norte 7 Norte 0 -- -- 91
2019-10-08 02:00:00 19.4 0 Calma 6 Nordeste 0 -- -- 92
2019-10-08 01:00:00 19.9 0 Calma 6 Norte 0 -- -- 91
2019-10-08 00:00:00 20.4 4 Sur 6 Sur 0 -- -- 90
2019-10-07 23:00:00 20.6 0 Calma 8 Sudoeste 0 -- -- 87
2019-10-07 22:00:00 21.1 5 Sur 8 Sur 0 -- -- 84
2019-10-07 21:00:00 22 0 Calma 9 Sudoeste 0 -- -- 79
2019-10-07 20:00:00 23.4 6 Sur 12 Sudoeste 0 -- -- 73
2019-10-07 19:00:00 26.4 6 Sur 21 Sudoeste 0 -- -- 63
2019-10-07 18:00:00 29.8 13 Sur 23 Sur 0 -- -- 51
2019-10-07 17:00:00 30.8 12 Sur 22 Sur 0 -- -- 50
2019-10-07 16:00:00 29.3 17 Sur 23 Sur 0 -- -- 55
2019-10-07 15:00:00 27.8 15 Sur 31 Sur 0 -- -- 61
2019-10-07 14:00:00 26.7 22 Sur 29 Sur 0 -- -- 63
2019-10-07 13:00:00 26.1 21 Sur 29 Sur 0 -- -- 65
2019-10-07 12:00:00 25.5 17 Sur 24 Sur 0 -- -- 68
2019-10-07 11:00:00 23.2 8 Sur 14 Sur 0 -- -- 75
2019-10-07 10:00:00 20.2 3 Sudeste 8 Norte 0 -- -- 88
2019-10-07 09:00:00 18.3 4 Norte 12 Norte 0 -- -- 90
2019-10-07 08:00:00 17.7 3 Norte 9 Norte 0 -- -- 89
2019-10-07 07:00:00 17.6 0 Calma 8 Norte 0 -- -- 88
2019-10-07 06:00:00 17.9 0 Calma 6 Nordeste 0 -- -- 87
2019-10-07 05:00:00 18 0 Calma 8 Norte 0 -- -- 86
2019-10-07 04:00:00 18.3 3 Nordeste 6 Norte 0 -- -- 85
2019-10-07 03:00:00 19 4 Norte 6 Norte 0 -- -- 86
2019-10-07 02:00:00 19.6 0 Calma 6 Sur 0 -- -- 85
2019-10-07 01:00:00 20.3 4 Sur 19 Noroeste 0 -- -- 79
2019-10-07 00:00:00 20.8 16 Norte 23 Norte 0 -- -- 74
2019-10-06 23:00:00 21.3 9 Norte 22 Norte 0 -- -- 72
2019-10-06 22:00:00 21.1 9 Nordeste 18 Nordeste 0 -- -- 76
2019-10-06 21:00:00 21.9 6 Sudoeste 17 Nordeste 0 -- -- 76
2019-10-06 20:00:00 22.6 8 Nordeste 24 Nordeste 0 -- -- 70
2019-10-06 19:00:00 24.8 7 Sudoeste 23 Sur 0 -- -- 61
2019-10-06 18:00:00 28.4 17 Sur 28 Sur 0 -- -- 52
2019-10-06 17:00:00 29.1 20 Sur 28 Sudoeste 0 -- -- 51
2019-10-06 16:00:00 29.2 22 Sur 33 Sur 0 -- -- 50
2019-10-06 15:00:00 29.3 18 Sur 28 Sur 0 -- -- 52
2019-10-06 14:00:00 28.5 20 Sur 30 Sur 0 -- -- 54
2019-10-06 13:00:00 27.1 22 Sur 28 Sur 0 -- -- 60
2019-10-06 12:00:00 26.2 18 Sur 24 Sur 0 -- -- 64
2019-10-06 11:00:00 24.4 10 Sur 22 Nordeste 0 -- -- 62
2019-10-06 10:00:00 21.6 13 Nordeste 25 Nordeste 0 -- -- 69
2019-10-06 09:00:00 19.3 7 Norte 16 Nordeste 0 -- -- 79
2019-10-06 08:00:00 18.9 0 Calma 17 Norte 0 -- -- 78
2019-10-06 07:00:00 19.3 5 Norte 15 Nordeste 0 -- -- 77
2019-10-06 06:00:00 19.8 0 Calma 22 Nordeste 0 -- -- 75
2019-10-06 05:00:00 20.6 9 Nordeste 31 Nordeste 0 -- -- 71
2019-10-06 04:00:00 21 16 Nordeste 34 Este 0 -- -- 69
2019-10-06 03:00:00 20.6 10 Nordeste 23 Nordeste 0 -- -- 71
2019-10-06 02:00:00 20.9 10 Nordeste 24 Nordeste 0 -- -- 69
2019-10-06 01:00:00 21 11 Norte 22 Norte 0 -- -- 69
2019-10-06 00:00:00 21 7 Norte 26 Norte 0 -- -- 69
2019-10-05 23:00:00 21.6 13 Norte 26 Norte 0 -- -- 66
2019-10-05 22:00:00 22.5 18 Nordeste 34 Nordeste 0 -- -- 61
2019-10-05 21:00:00 22.2 21 Nordeste 34 Nordeste 0 -- -- 65
2019-10-05 20:00:00 22.4 19 Nordeste 31 Nordeste 0 -- -- 70
2019-10-05 19:00:00 24.3 18 Nordeste 34 Nordeste 0 -- -- 64
2019-10-05 18:00:00 25.7 23 Nordeste 34 Nordeste 0 -- -- 57
2019-10-05 17:00:00 27.3 16 Nordeste 33 Nordeste 0 -- -- 52
2019-10-05 16:00:00 26.7 20 Nordeste 36 Nordeste 0 -- -- 57
2019-10-05 15:00:00 27.4 21 Nordeste 32 Nordeste 0 -- -- 53
2019-10-05 14:00:00 28.4 11 Nordeste 27 Sur 0 -- -- 50
2019-10-05 13:00:00 28.7 18 Sur 26 Sur 0 -- -- 54
2019-10-05 12:00:00 27.4 13 Sur 21 Sur 0 -- -- 55
2019-10-05 11:00:00 25.2 6 Sur 30 Nordeste 0 -- -- 56
2019-10-05 10:00:00 23.5 14 Nordeste 23 Nordeste 0 -- -- 60
2019-10-05 09:00:00 21.5 3 Sur 42 Norte 0 -- -- 64
2019-10-05 08:00:00 22.2 26 Norte 45 Norte 0 -- -- 61
2019-10-05 07:00:00 22 27 Norte 40 Norte 0 -- -- 62
2019-10-05 06:00:00 22.1 12 Nordeste 32 Norte 0 -- -- 57
2019-10-05 05:00:00 22.1 18 Norte 32 Nordeste 0 -- -- 57
2019-10-05 04:00:00 22.1 14 Norte 32 Norte 0 -- -- 59
2019-10-05 03:00:00 21.8 15 Norte 28 Norte 0 -- -- 60
2019-10-05 02:00:00 22 16 Norte 36 Norte 0 -- -- 56
2019-10-05 01:00:00 22.2 23 Norte 34 Norte 0 -- -- 58
2019-10-05 00:00:00 22.4 19 Norte 37 Norte 0 -- -- 59
2019-10-04 23:00:00 23.5 24 Norte 38 Norte 0 -- -- 52
2019-10-04 22:00:00 22.7 26 Norte 52 Nordeste 0 -- -- 61
2019-10-04 21:00:00 23.6 17 Norte 40 Nordeste 0 -- -- 58
2019-10-04 20:00:00 24.4 20 Norte 37 Nordeste 0 -- -- 57
2019-10-04 19:00:00 26.8 9 Sur 20 Sur 0 -- -- 64
2019-10-04 18:00:00 30.1 15 Sur 24 Sur 0 -- -- 55
2019-10-04 17:00:00 31.1 15 Sur 26 Sudoeste 0 -- -- 48
2019-10-04 16:00:00 32.1 16 Sur 24 Sur 0 -- -- 51
2019-10-04 15:00:00 31.3 13 Sur 31 Sur 0 -- -- 52
2019-10-04 14:00:00 31.1 16 Sur 23 Sur 0 -- -- 53
2019-10-04 13:00:00 28.6 11 Nordeste 27 Sur 0 -- -- 48
2019-10-04 12:00:00 27.8 8 Sudoeste 26 Nordeste 0 -- -- 51
2019-10-04 11:00:00 27.5 10 Sur 31 Norte 0 -- -- 57
2019-10-04 10:00:00 24.6 15 Norte 30 Norte 0 -- -- 51
2019-10-04 09:00:00 23.8 20 Norte 40 Norte 0 -- -- 53
2019-10-04 08:00:00 23.1 23 Norte 49 Nordeste 0 -- -- 56
2019-10-04 07:00:00 23.1 25 Norte 39 Norte 0 -- -- 55
2019-10-04 06:00:00 22 26 Norte 47 Nordeste 0 -- -- 65
2019-10-04 05:00:00 23.5 22 Norte 44 Norte 0 -- -- 55
2019-10-04 04:00:00 24.6 6 Sudeste 12 Este 0 -- -- 34
2019-10-04 03:00:00 26.5 7 Norte 21 Norte 0 -- -- 32
2019-10-04 02:00:00 25.8 5 Norte 14 Norte 0 -- -- 34
2019-10-04 01:00:00 24.2 4 Norte 11 Norte 0 -- -- 43
2019-10-04 00:00:00 22.4 3 Noroeste 15 Sur 0 -- -- 73
2019-10-03 23:00:00 22.8 5 Este 15 Norte 0 -- -- 72
2019-10-03 22:00:00 23.1 4 Norte 13 Sur 0 -- -- 69
2019-10-03 21:00:00 23.6 6 Nordeste 12 Sur 0 -- -- 68
2019-10-03 20:00:00 25.2 6 Sur 14 Sudoeste 0 -- -- 66
2019-10-03 19:00:00 29 8 Sur 22 Sur 0 -- -- 54
2019-10-03 18:00:00 31.6 10 Sudoeste 22 Sur 0 -- -- 48
2019-10-03 17:00:00 32 17 Sur 27 Sur 0 -- -- 45
2019-10-03 16:00:00 32.9 19 Sur 28 Sur 0 -- -- 40
2019-10-03 15:00:00 33.3 19 Sur 26 Sur 0 -- -- 39
2019-10-03 14:00:00 32.9 17 Sur 25 Sur 0 -- -- 42
2019-10-03 13:00:00 31.9 12 Sur 22 Sur 0 -- -- 44
2019-10-03 12:00:00 31 12 Sur 22 Sur 0 -- -- 45
2019-10-03 11:00:00 28.9 9 Sur 15 Sur 0 -- -- 43
2019-10-03 10:00:00 25.4 2 Sur 8 Norte 0 -- -- 46
2019-10-03 09:00:00 23.4 3 Nordeste 12 Norte 0 -- -- 48
2019-10-03 08:00:00 23 6 Norte 12 Norte 0 -- -- 43
2019-10-03 07:00:00 23 5 Norte 11 Norte 0 -- -- 48
2019-10-03 06:00:00 22.9 4 Nordeste 9 Nordeste 0 -- -- 52
2019-10-03 05:00:00 22.2 2 Norte 10 Norte 0 -- -- 58
2019-10-03 04:00:00 22.1 0 Calma 10 Sur 0 -- -- 65
2019-10-03 03:00:00 23.5 5 Norte 7 Norte 0 -- -- 51
2019-10-03 02:00:00 23.6 3 Norte 7 Sur 0 -- -- 53
2019-10-03 01:00:00 26.1 3 Sur 7 Norte 0 -- -- 36
2019-10-03 00:00:00 26.3 3 Norte 9 Nordeste 0 -- -- 37
2019-10-02 23:00:00 26.1 0 Calma 5 Norte 0 -- -- 43
2019-10-02 22:00:00 26.1 2 Norte 5 Norte 0 -- -- 43
2019-10-02 21:00:00 25.7 0 Calma 5 Norte 0 -- -- 53
2019-10-02 20:00:00 27.6 3 Sur 10 Sudoeste 0 -- -- 49
2019-10-02 19:00:00 31.4 8 Sur 12 Sur 0 -- -- 42
2019-10-02 18:00:00 33.1 10 Sudoeste 17 Sudoeste 0 -- -- 38
2019-10-02 17:00:00 34.6 14 Sudoeste 24 Sur 0 -- -- 36
2019-10-02 16:00:00 34.1 16 Sur 21 Sur 0 -- -- 37
2019-10-02 15:00:00 33.6 17 Sur 22 Sur 0 -- -- 41
2019-10-02 14:00:00 33.1 12 Sudoeste 18 Sur 0 -- -- 40
2019-10-02 13:00:00 33 13 Sur 18 Sur 0 -- -- 40
2019-10-02 12:00:00 32.3 13 Sur 17 Sur 0 -- -- 40
2019-10-02 11:00:00 30.6 8 Sur 10 Sur 0 -- -- 38
2019-10-02 10:00:00 27 0 Calma 4 Nordeste 0 -- -- 28
2019-10-02 09:00:00 24.2 3 Norte 6 Norte 0 -- -- 33
2019-10-02 08:00:00 23.8 3 Norte 6 Norte 0 -- -- 40
2019-10-02 07:00:00 23.4 0 Calma 7 Sudoeste 0 -- -- 56
2019-10-02 06:00:00 24.1 0 Calma 7 Nordeste 0 -- -- 42
2019-10-02 05:00:00 26 2 Norte 7 Norte 0 -- -- 28
2019-10-02 04:00:00 25.5 3 Sudeste 7 Sur 0 -- -- 32
2019-10-02 03:00:00 24.7 5 Norte 10 Sudoeste 0 -- -- 37
2019-10-02 02:00:00 24.3 6 Norte 8 Norte 0 -- -- 47
2019-10-02 01:00:00 24.6 2 Norte 13 Sudoeste 0 -- -- 62
2019-10-02 00:00:00 24.5 5 Norte 10 Sur 0 -- -- 52
2019-10-01 23:00:00 26.2 0 Calma 6 Norte 0 -- -- 51
2019-10-01 22:00:00 26.3 8 Sur 15 Sur 0 -- -- 57
2019-10-01 21:00:00 26.7 6 Sur 13 Sur 0 -- -- 54
2019-10-01 20:00:00 28.5 7 Sur 15 Sur 0 -- -- 50
2019-10-01 19:00:00 31.6 0 Calma 17 Sur 0 -- -- 47
2019-10-01 18:00:00 34.2 15 Sur 21 Sur 0 -- -- 43
2019-10-01 17:00:00 35.4 15 Sur 22 Sur 0 -- -- 38
2019-10-01 16:00:00 -- 14 Sur 21 Sur 0 -- -- 31
2019-10-01 15:00:00 -- 18 Sur 23 Sur 0 -- -- 28
2019-10-01 14:00:00 -- 14 Sur 20 Sur 0 -- -- 31
2019-10-01 13:00:00 34.7 14 Sur 18 Sur 0 -- -- 33
2019-10-01 12:00:00 33.2 12 Sudoeste 18 Sudoeste 0 -- -- 40
2019-10-01 11:00:00 29.6 0 Calma 8 Sur 0 -- -- 31
2019-10-01 10:00:00 25.4 0 Calma 5 Sur 0 -- -- 45
2019-10-01 09:00:00 23.5 4 Nordeste 9 Sur 0 -- -- 47
2019-10-01 08:00:00 23 6 Norte 11 Sudoeste 0 -- -- 48
2019-10-01 07:00:00 23.2 6 Norte 8 Norte 0 -- -- 40
2019-10-01 06:00:00 23.3 0 Calma 6 Nordeste 0 -- -- 50
2019-10-01 05:00:00 23.9 0 Calma 12 Norte 0 -- -- 51
2019-10-01 04:00:00 23.9 4 Sur 10 Norte 0 -- -- 49
2019-10-01 03:00:00 24.6 6 Norte 10 Sur 0 -- -- 46
2019-10-01 02:00:00 27.2 0 Calma 7 Norte 0 -- -- 32
2019-10-01 01:00:00 26.1 2 Sur 6 Norte 0 -- -- 47
2019-10-01 00:00:00 25.4 5 Norte 9 Sur 0 -- -- 48
2019-09-30 23:00:00 26.8 0 Calma 10 Norte 0 -- -- 48
2019-09-30 22:00:00 24.9 6 Norte 10 Norte 0 -- -- 63
2019-09-30 21:00:00 24.4 2 Sur 18 Sur 0 -- -- 73
2019-09-30 20:00:00 26.1 3 Sudoeste 15 Sur 0 -- -- 61
2019-09-30 19:00:00 29.1 9 Sudoeste 22 Sur 0 -- -- 53
2019-09-30 18:00:00 34.9 9 Sur 27 Sur 0 -- -- 43
2019-09-30 17:00:00 -- 10 Sur 19 Sur 0 -- -- 42
2019-09-30 16:00:00 33.5 15 Sur 29 Sur 0 -- -- 40
2019-09-30 15:00:00 34.2 6 Sudoeste 28 Sur 0 -- -- 37
2019-09-30 14:00:00 -- 8 Sudoeste 23 Sur 0 -- -- 29
2019-09-30 13:00:00 34 10 Sur 22 Sur 0 -- -- 35
2019-09-30 12:00:00 32.8 13 Sur 19 Sur 0 -- -- 36
2019-09-30 11:00:00 30.3 10 Sur 23 Sur 0 -- -- 38
2019-09-30 10:00:00 27.8 0 Calma 10 Norte 0 -- -- 27
2019-09-30 09:00:00 25 5 Sur 13 Norte 0 -- -- 33
2019-09-30 08:00:00 24.7 5 Nordeste 10 Sudoeste 0 -- -- 33
2019-09-30 07:00:00 25.3 7 Norte 10 Sudoeste 0 -- -- 27
2019-09-30 06:00:00 26.5 4 Nordeste 9 Nordeste 0 -- -- 27
2019-09-30 05:00:00 24.9 0 Calma 10 Sur 0 -- -- 34
2019-09-30 04:00:00 26.3 6 Nordeste 14 Norte 0 -- -- 33
2019-09-30 03:00:00 23.3 3 Norte 7 Norte 0 -- -- 39
2019-09-30 02:00:00 21.3 6 Norte 12 Sur 0 -- -- 82
2019-09-30 01:00:00 21.5 7 Norte 9 Norte 0 -- -- 84
2019-09-30 00:00:00 23.4 5 Sudoeste 17 Sur 0 -- -- 74
2019-09-29 23:00:00 26.3 2 Norte 10 Sur 0 -- -- 34
2019-09-29 22:00:00 25.4 4 Sur 13 Sur 0 -- -- 65
2019-09-29 21:00:00 26.1 4 Sur 13 Sur 0 -- -- 65
2019-09-29 20:00:00 28.3 3 Sur 19 Este 0 -- -- 60
2019-09-29 19:00:00 32.9 9 Nordeste 16 Nordeste 0 -- -- 23
2019-09-29 18:00:00 29.4 3 Oeste 21 Sur 0 -- -- 58
2019-09-29 17:00:00 32.4 11 Sur 19 Sur 0 -- -- 50
2019-09-29 16:00:00 31 12 Sur 21 Sur 0 -- -- 54
2019-09-29 15:00:00 30.1 17 Sur 24 Sur 0 -- -- 55
2019-09-29 14:00:00 30.6 14 Sur 24 Sur 0 -- -- 54
2019-09-29 13:00:00 28.9 12 Sur 22 Sur 0 -- -- 60
2019-09-29 12:00:00 26 18 Sur 26 Sur 0 -- -- 70
2019-09-29 11:00:00 25.3 10 Sur 16 Sur 0 -- -- 69
2019-09-29 10:00:00 21.2 5 Norte 7 Sur 0 -- -- 84
2019-09-29 09:00:00 19.5 7 Sur 15 Sur 0 -- -- 85
2019-09-29 08:00:00 18.9 6 Norte 12 Norte 0 -- -- 88
2019-09-29 07:00:00 19.2 2 Norte 8 Sudeste 0 -- -- 83
2019-09-29 06:00:00 19.3 2 Norte 7 Sur 0 -- -- 75
2019-09-29 05:00:00 19.9 0 Calma 6 Norte 0 -- -- 68
2019-09-29 04:00:00 19.8 3 Norte 5 Norte 0 -- -- 72
2019-09-29 03:00:00 20.4 0 Calma 5 Sudeste 0 -- -- 73
2019-09-29 02:00:00 20.5 3 Nordeste 5 Norte 0 -- -- 79
2019-09-29 01:00:00 20.6 2 Norte 7 Sur 0 -- -- 80
2019-09-29 00:00:00 20.7 4 Norte 8 Sur 0 -- -- 79
2019-09-28 23:00:00 21.3 0 Calma 8 Nordeste 0 -- -- 79
2019-09-28 22:00:00 21.8 0 Calma 9 Sur 0 -- -- 76
2019-09-28 21:00:00 22.5 0 Calma 9 Sudoeste 0 -- -- 74
2019-09-28 20:00:00 23.6 2 Sudeste 18 Sur 0 -- -- 70
2019-09-28 19:00:00 26.5 11 Sur 22 Sur 0 -- -- 61
2019-09-28 18:00:00 28.9 17 Sur 25 Sur 0 -- -- 55
2019-09-28 17:00:00 29 14 Sur 27 Sur 0 -- -- 55
2019-09-28 16:00:00 28.3 19 Sur 31 Sur 0 -- -- 58
2019-09-28 15:00:00 28.1 21 Sur 31 Sur 0 -- -- 58
2019-09-28 14:00:00 27.7 21 Sur 31 Sur 0 -- -- 59
2019-09-28 13:00:00 27.4 17 Sur 26 Sur 0 -- -- 63
2019-09-28 12:00:00 25.7 17 Sur 22 Sur 0 -- -- 69
2019-09-28 11:00:00 24.4 12 Sur 18 Sur 0 -- -- 74
2019-09-28 10:00:00 20.7 4 Sudoeste 9 Sur 0 -- -- 88
2019-09-28 09:00:00 19.1 0 Calma 8 Norte 0 -- -- 85
2019-09-28 08:00:00 18.7 0 Calma 4 Norte 0 -- -- 77
2019-09-28 07:00:00 18.5 0 Calma 5 Norte 0 -- -- 82
2019-09-28 06:00:00 18.7 3 Norte 6 Norte 0 -- -- 85
2019-09-28 05:00:00 19.1 2 Nordeste 4 Norte 0 -- -- 83
2019-09-28 04:00:00 19.5 0 Calma 6 Nordeste 0 -- -- 79
2019-09-28 03:00:00 19.8 0 Calma 5 Sur 0 -- -- 79
2019-09-28 02:00:00 20.2 0 Calma 8 Norte 0 -- -- 79
2019-09-28 01:00:00 20.3 0 Calma 5 Norte 0 -- -- 79
2019-09-28 00:00:00 20.6 3 Norte 10 Norte 0 -- -- 76
2019-09-27 23:00:00 20.8 0 Calma 4 Norte 0 -- -- 83
2019-09-27 22:00:00 21.2 0 Calma 9 Sur 0 -- -- 82
2019-09-27 21:00:00 22 5 Sur 10 Sudoeste 0 -- -- 78
2019-09-27 20:00:00 23 9 Sur 19 Sur 0 -- -- 74
2019-09-27 19:00:00 25.2 14 Sur 25 Sur 0 -- -- 68
2019-09-27 18:00:00 27.1 21 Sur 31 Sur 0 -- -- 62
2019-09-27 17:00:00 28.9 21 Sur 30 Sur 0 -- -- 56
2019-09-27 16:00:00 29.5 20 Sur 26 Sur 0 -- -- 54
2019-09-27 15:00:00 29 19 Sur 30 Sur 0 -- -- 54
2019-09-27 14:00:00 28.3 21 Sur 30 Sur 0 -- -- 55
2019-09-27 13:00:00 28.2 18 Sur 28 Sur 0 -- -- 55
2019-09-27 12:00:00 27.1 19 Sur 28 Sur 0 -- -- 60
2019-09-27 11:00:00 24.6 6 Sur 13 Sur 0 -- -- 65
2019-09-27 10:00:00 20.9 0 Calma 6 Nordeste 0 -- -- 81
2019-09-27 09:00:00 19 0 Calma 5 Norte 0 -- -- 82
2019-09-27 08:00:00 18.6 0 Calma 5 Sudeste 0 -- -- 83
2019-09-27 07:00:00 18.8 0 Calma 10 Norte 0 -- -- 83
2019-09-27 06:00:00 19.2 0 Calma 6 Nordeste 0 -- -- 82
2019-09-27 05:00:00 19.5 0 Calma 16 Norte 0 -- -- 78
2019-09-27 04:00:00 20.2 5 Este 18 Nordeste 0 -- -- 75
2019-09-27 03:00:00 20.8 4 Este 21 Norte 0 -- -- 72
2019-09-27 02:00:00 20.2 4 Norte 7 Norte 0 -- -- 78
2019-09-27 01:00:00 20.6 2 Nordeste 6 Norte 0 -- -- 78
2019-09-27 00:00:00 20.4 0 Calma 9 Sur 0 -- -- 83
2019-09-26 23:00:00 20.9 6 Sur 9 Sur 0 -- -- 79
2019-09-26 22:00:00 21.3 2 Sur 15 Sur 0 -- -- 75
2019-09-26 21:00:00 22.2 13 Sur 19 Sur 0 -- -- 74
2019-09-26 20:00:00 23.7 10 Sudoeste 21 Sur 0 -- -- 69
2019-09-26 19:00:00 27.4 14 Sur 21 Sur 0 -- -- 55
2019-09-26 18:00:00 29.1 16 Sur 23 Sur 0 -- -- 54
2019-09-26 17:00:00 28.9 17 Sur 30 Sur 0 -- -- 52
2019-09-26 16:00:00 28.9 22 Sur 34 Sur 0 -- -- 50
2019-09-26 15:00:00 29.9 22 Sur 31 Sur 0 -- -- 46
2019-09-26 14:00:00 29.3 18 Sur 26 Sur 0 -- -- 56
2019-09-26 13:00:00 27.8 21 Sur 27 Sur 0 -- -- 57
2019-09-26 12:00:00 26.4 18 Sur 23 Sur 0 -- -- 62
2019-09-26 11:00:00 25.1 16 Sur 23 Sur 0 -- -- 66
2019-09-26 10:00:00 21.1 6 Sur 10 Norte 0 -- -- 79
2019-09-26 09:00:00 18.6 6 Norte 11 Norte 0 -- -- 82
2019-09-26 08:00:00 18.6 0 Calma 9 Norte 0 -- -- 83
2019-09-26 07:00:00 18.8 5 Norte 6 Norte 0 -- -- 82
2019-09-26 06:00:00 18.9 3 Nordeste 6 Norte 0 -- -- 83
2019-09-26 05:00:00 18.9 0 Calma 4 Norte 0 -- -- 84
2019-09-26 04:00:00 19.3 0 Calma 5 Sur 0 -- -- 83
2019-09-26 03:00:00 19.6 3 Sur 6 Sudeste 0 -- -- 79
2019-09-26 02:00:00 19.9 0 Calma 6 Norte 0 -- -- 80
2019-09-26 01:00:00 20 2 Nordeste 5 Norte 0 -- -- 82
2019-09-26 00:00:00 20.8 0 Calma 16 Sur 0 -- -- 82
2019-09-25 23:00:00 21.7 6 Sur 14 Norte 0 -- -- 74
2019-09-25 22:00:00 22.1 7 Norte 19 Nordeste 0 -- -- 71
2019-09-25 21:00:00 22.3 11 Nordeste 23 Norte 0 -- -- 72
2019-09-25 20:00:00 23.1 8 Sur 21 Sur 0 -- -- 72
2019-09-25 19:00:00 25.9 17 Sur 27 Sur 0 -- -- 60
2019-09-25 18:00:00 28.5 19 Sur 28 Sur 0 -- -- 52
2019-09-25 17:00:00 29.7 17 Sur 28 Sur 0 -- -- 50
2019-09-25 16:00:00 30 16 Sur 28 Sur 0 -- -- 48
2019-09-25 15:00:00 28.6 20 Sur 30 Sur 0 -- -- 49
2019-09-25 14:00:00 28.3 22 Sur 30 Sur 0 -- -- 54
2019-09-25 13:00:00 27.9 21 Sur 28 Sur 0 -- -- 55
2019-09-25 12:00:00 27.2 16 Sur 22 Nordeste 0 -- -- 57
2019-09-25 11:00:00 24 11 Nordeste 22 Nordeste 0 -- -- 55
2019-09-25 10:00:00 21 3 Sur 8 Este 0 -- -- 72
2019-09-25 09:00:00 19 3 Sudeste 18 Nordeste 0 -- -- 77
2019-09-25 08:00:00 20 10 Nordeste 30 Norte 0 -- -- 69
2019-09-25 07:00:00 20 21 Nordeste 35 Nordeste 0 -- -- 69
2019-09-25 06:00:00 19.6 17 Nordeste 31 Este 0 -- -- 72
2019-09-25 05:00:00 19.8 16 Nordeste 31 Nordeste 0 -- -- 71
2019-09-25 04:00:00 20.1 9 Nordeste 23 Nordeste 0 -- -- 69
2019-09-25 03:00:00 20.2 9 Norte 29 Nordeste 0 -- -- 68
2019-09-25 02:00:00 20.5 18 Nordeste 30 Nordeste 0 -- -- 68
2019-09-25 01:00:00 19.9 13 Nordeste 20 Norte 0 -- -- 74
2019-09-25 00:00:00 20.3 0 Calma 10 Sur 0 -- -- 80
2019-09-24 23:00:00 20.8 2 Este 18 Nordeste 0 -- -- 73
2019-09-24 22:00:00 21.4 13 Nordeste 28 Nordeste 0 -- -- 66
2019-09-24 21:00:00 21.4 15 Nordeste 26 Nordeste 0 -- -- 70
2019-09-24 20:00:00 22.5 13 Nordeste 26 Nordeste 0 -- -- 67
2019-09-24 19:00:00 24.3 18 Nordeste 36 Nordeste 0 -- -- 61
2019-09-24 18:00:00 25.4 21 Nordeste 33 Nordeste 0 -- -- 57
2019-09-24 17:00:00 26.3 17 Norte 29 Nordeste 0 -- -- 54
2019-09-24 16:00:00 28.4 22 Sur 31 Sur 0 -- -- 53
2019-09-24 15:00:00 28.6 22 Sur 34 Sur 0 -- -- 52
2019-09-24 14:00:00 27.7 25 Sur 35 Sur 0 -- -- 58
2019-09-24 13:00:00 26 13 Norte 29 Sur 0 -- -- 55
2019-09-24 12:00:00 25.9 15 Sur 27 Noroeste 0 -- -- 60
2019-09-24 11:00:00 23.9 8 Sur 21 Norte 0 -- -- 67
2019-09-24 10:00:00 21.8 10 Nordeste 23 Este 0 -- -- 71
2019-09-24 09:00:00 19.9 12 Nordeste 23 Nordeste 0 -- -- 78
2019-09-24 08:00:00 19.1 10 Nordeste 18 Nordeste 0 -- -- 82
2019-09-24 07:00:00 18.4 8 Norte 10 Norte 0 -- -- 79
2019-09-24 06:00:00 19 0 Calma 7 Norte 0 -- -- 76
2019-09-24 05:00:00 19.6 7 Sur 26 Nordeste 0 -- -- 74
2019-09-24 04:00:00 20.1 13 Norte 21 Nordeste 0 -- -- 72
2019-09-24 03:00:00 19.6 0 Calma 5 Norte 0 -- -- 73
2019-09-24 02:00:00 20.1 5 Norte 13 Nordeste 0 -- -- 72
2019-09-24 01:00:00 20.5 4 Norte 10 Nordeste 0 -- -- 71
2019-09-24 00:00:00 21.1 11 Nordeste 17 Nordeste 0 -- -- 71
2019-09-23 23:00:00 21 12 Nordeste 21 Nordeste 0 -- -- 73
2019-09-23 22:00:00 21.8 3 Sur 14 Este 0 -- -- 75
2019-09-23 21:00:00 22.4 5 Sudeste 30 Nordeste 0 -- -- 71
2019-09-23 20:00:00 23.2 18 Nordeste 32 Nordeste 0 -- -- 62
2019-09-23 19:00:00 24.9 13 Norte 23 Sur 0 -- -- 57
2019-09-23 18:00:00 26.4 16 Sur 30 Sur 0 -- -- 63
2019-09-23 17:00:00 28.9 22 Sur 42 Sur 0 -- -- 54
2019-09-23 16:00:00 29.6 20 Sur 32 Sur 0 -- -- 53
2019-09-23 15:00:00 27.3 8 Sur 29 Norte 0 -- -- 56
2019-09-23 14:00:00 28.6 18 Sur 26 Sur 0 -- -- 58
2019-09-23 13:00:00 25.8 15 Sur 24 Sur 0 -- -- 68
2019-09-23 12:00:00 25 16 Sur 25 Sur 0 -- -- 71
2019-09-23 11:00:00 25.5 16 Sur 24 Sur 0 -- -- 71
2019-09-23 10:00:00 22.4 3 Este 31 Nordeste 0 -- -- 78
2019-09-23 09:00:00 20.2 17 Nordeste 24 Nordeste 0 -- -- 82
2019-09-23 08:00:00 20.1 10 Nordeste 20 Nordeste 0 -- -- 85
2019-09-23 07:00:00 20.3 9 Norte 27 Nordeste 0 -- -- 85
2019-09-23 06:00:00 20.8 15 Nordeste 23 Nordeste 0 -- -- 84
2019-09-23 05:00:00 20.7 5 Nordeste 18 Nordeste 0 -- -- 85
2019-09-23 04:00:00 20.8 11 Norte 23 Nordeste 0 -- -- 86
2019-09-23 03:00:00 20.8 10 Nordeste 18 Norte 0 -- -- 87
2019-09-23 02:00:00 21.1 5 Sur 14 Nordeste 0 -- -- 86
2019-09-23 01:00:00 21 6 Norte 12 Norte 0 -- -- 87
2019-09-23 00:00:00 21.6 6 Sur 14 Sur 0 -- -- 87
2019-09-22 23:00:00 22.1 5 Sur 17 Este 0 -- -- 85
2019-09-22 22:00:00 22.5 5 Sur 25 Este 0 -- -- 81
2019-09-22 21:00:00 23.1 13 Nordeste 25 Nordeste 0 -- -- 80
2019-09-22 20:00:00 23.5 18 Nordeste 26 Nordeste 0 -- -- 77
2019-09-22 19:00:00 26.4 9 Nordeste 23 Sur 0 -- -- 68
2019-09-22 18:00:00 27.2 19 Sur 27 Sur 0 -- -- 62
2019-09-22 17:00:00 28 19 Sur 33 Sur 0 -- -- 56
2019-09-22 16:00:00 28 21 Sur 30 Sur 0 -- -- 54
2019-09-22 15:00:00 28 23 Sur 33 Sur 0 -- -- 54
2019-09-22 14:00:00 28.4 22 Sur 32 Sur 0 -- -- 54
2019-09-22 13:00:00 27.6 21 Sur 30 Sudoeste 0 -- -- 59
2019-09-22 12:00:00 26.3 13 Sur 24 Sudoeste 0 -- -- 65
2019-09-22 11:00:00 24.8 14 Sur 21 Sur 0 -- -- 70
2019-09-22 10:00:00 20.8 2 Sudeste 6 Norte 0 -- -- 85
2019-09-22 09:00:00 18.8 4 Nordeste 6 Sudeste 0 -- -- 89
2019-09-22 08:00:00 18.3 2 Sur 8 Norte 0 -- -- 88
2019-09-22 07:00:00 18.6 0 Calma 5 Norte 0 -- -- 88
2019-09-22 06:00:00 18.7 4 Sur 8 Norte 0 -- -- 88
2019-09-22 05:00:00 18.7 3 Norte 5 Norte 0 -- -- 90
2019-09-22 04:00:00 18.9 0 Calma 4 Norte 0 -- -- 91
2019-09-22 03:00:00 19.4 3 Norte 8 Sur 0 -- -- 90
2019-09-22 02:00:00 19.6 3 Sudeste 9 Sur 0 -- -- 89
2019-09-22 01:00:00 19.6 3 Sur 7 Sur 0 -- -- 87
2019-09-22 00:00:00 20.1 0 Calma 12 Sur 0 -- -- 86
2019-09-21 23:00:00 20.5 9 Sur 12 Sur 0 -- -- 84
2019-09-21 22:00:00 21.1 8 Sur 14 Sur 0 -- -- 82
2019-09-21 21:00:00 21.7 11 Sur 24 Sur 0 -- -- 79
2019-09-21 20:00:00 23.2 14 Sur 22 Sur 0 -- -- 73
2019-09-21 19:00:00 26.1 14 Sur 28 Sur 0 -- -- 64
2019-09-21 18:00:00 27.5 19 Sur 28 Sur 0 -- -- 60
2019-09-21 17:00:00 28.2 19 Sur 31 Sur 0 -- -- 59
2019-09-21 16:00:00 28.4 22 Sur 30 Sur 0 -- -- 57
2019-09-21 15:00:00 28.1 24 Sur 33 Sur 0 -- -- 58
2019-09-21 14:00:00 27.2 25 Sur 31 Sur 0 -- -- 60
2019-09-21 13:00:00 27 20 Sur 28 Sur 0 -- -- 61
2019-09-21 12:00:00 25.7 17 Sur 25 Sur 0 -- -- 66
2019-09-21 11:00:00 24.4 12 Sur 16 Sur 0 -- -- 70
2019-09-21 10:00:00 20.2 4 Sur 9 Sur 0 -- -- 82
2019-09-21 09:00:00 18.1 3 Norte 8 Norte 0 -- -- 84
2019-09-21 08:00:00 17.9 0 Calma 4 Norte 0 -- -- 84
2019-09-21 07:00:00 18.3 0 Calma 5 Norte 0 -- -- 86
2019-09-21 06:00:00 18.7 0 Calma 16 Nordeste 0 -- -- 88
2019-09-21 05:00:00 18.4 0 Calma 6 Norte 0 -- -- 90
2019-09-21 04:00:00 18.5 0 Calma 5 Sudeste 0 -- -- 88
2019-09-21 03:00:00 18.7 2 Norte 5 Norte 0 -- -- 87
2019-09-21 02:00:00 19.4 0 Calma 4 Sur 0 -- -- 88
2019-09-21 01:00:00 19.8 3 Sur 7 Sur 0 -- -- 85
2019-09-21 00:00:00 20.1 0 Calma 5 Norte 0 -- -- 85
2019-09-20 23:00:00 20.6 2 Este 10 Sur 0 -- -- 83
2019-09-20 22:00:00 21.1 5 Sur 11 Sur 0 -- -- 80
2019-09-20 21:00:00 21.8 6 Sur 23 Sur 0 -- -- 76
2019-09-20 20:00:00 23.9 10 Sur 24 Sur 0 -- -- 69
2019-09-20 19:00:00 26.9 18 Sur 27 Sur 0 -- -- 60
2019-09-20 18:00:00 28.8 17 Sur 30 Sur 0 -- -- 54
2019-09-20 17:00:00 27.7 12 Nordeste 27 Sur 0 -- -- 55
2019-09-20 16:00:00 29.4 18 Sur 31 Sur 0 -- -- 49
2019-09-20 15:00:00 29.4 18 Sur 33 Sur 0 -- -- 49
2019-09-20 14:00:00 29 20 Sur 26 Sur 0 -- -- 51
2019-09-20 13:00:00 27 21 Sur 28 Sur 0 -- -- 55
2019-09-20 12:00:00 26.2 18 Sur 26 Sur 0 -- -- 58
2019-09-20 11:00:00 24.9 14 Sur 24 Sur 0 -- -- 61
2019-09-20 10:00:00 21 2 Nordeste 9 Nordeste 0 -- -- 62
2019-09-20 09:00:00 19.4 7 Sur 17 Norte 0 -- -- 69
2019-09-20 08:00:00 19.1 7 Norte 17 Norte 0 -- -- 73
2019-09-20 07:00:00 19.3 10 Norte 18 Norte 0 -- -- 75
2019-09-20 06:00:00 19.3 0 Calma 9 Oeste 0 -- -- 71
2019-09-20 05:00:00 20.1 3 Sur 26 Norte 0 -- -- 69
2019-09-20 04:00:00 20.7 16 Norte 26 Nordeste 0 -- -- 69
2019-09-20 03:00:00 20.5 15 Norte 27 Nordeste 0 -- -- 71
2019-09-20 02:00:00 20.2 14 Nordeste 24 Nordeste 0 -- -- 75
2019-09-20 01:00:00 20.5 0 Calma 15 Sur 0 -- -- 78
2019-09-20 00:00:00 21.3 8 Norte 20 Norte 0 -- -- 73
2019-09-19 23:00:00 21.5 10 Norte 23 Norte 0 -- -- 74
2019-09-19 22:00:00 21.6 14 Nordeste 27 Nordeste 0 -- -- 75
2019-09-19 21:00:00 22 5 Norte 19 Sur 0 -- -- 72
2019-09-19 20:00:00 24.3 8 Sur 22 Sudoeste 0 -- -- 59
2019-09-19 19:00:00 25.2 12 Nordeste 26 Nordeste 0 -- -- 64
2019-09-19 18:00:00 29.4 20 Sur 28 Sur 0 -- -- 50
2019-09-19 17:00:00 29.3 17 Sur 26 Sur 0 -- -- 50
2019-09-19 16:00:00 29 22 Sur 31 Sur 0 -- -- 51
2019-09-19 15:00:00 28.8 20 Sur 32 Sur 0 -- -- 53
2019-09-19 14:00:00 28.9 18 Sur 29 Sur 0 -- -- 53
2019-09-19 13:00:00 28.1 17 Sur 24 Sur 0 -- -- 55
2019-09-19 12:00:00 26 17 Sur 23 Sur 0 -- -- 63
2019-09-19 11:00:00 24.4 14 Sur 20 Sur 0 -- -- 70
2019-09-19 10:00:00 20.4 3 Sudeste 7 Sur 0 -- -- 86
2019-09-19 09:00:00 17.9 0 Calma 9 Norte 0 -- -- 86
2019-09-19 08:00:00 17.8 6 Norte 8 Norte 0 -- -- 86
2019-09-19 07:00:00 18.2 3 Norte 6 Norte 0 -- -- 87
2019-09-19 06:00:00 18.5 0 Calma 10 Norte 0 -- -- 86
2019-09-19 05:00:00 18.5 2 Norte 6 Norte 0 -- -- 86
2019-09-19 04:00:00 19 0 Calma 6 Norte 0 -- -- 85
2019-09-19 03:00:00 19.4 0 Calma 8 Norte 0 -- -- 84
2019-09-19 02:00:00 19.7 3 Norte 5 Norte 0 -- -- 84
2019-09-19 01:00:00 19.8 2 Nordeste 7 Norte 0 -- -- 86
2019-09-19 00:00:00 20.1 0 Calma 5 Norte 0 -- -- 86